createdAt,value
2017-08-15T00:00:03.308Z,0
2017-08-15T00:00:43.809Z,0
2017-08-15T00:01:24.348Z,0
2017-08-15T00:02:04.842Z,0
2017-08-15T00:02:45.337Z,0
2017-08-15T00:03:25.875Z,0
2017-08-15T00:04:06.391Z,0
2017-08-15T00:04:46.888Z,0
2017-08-15T00:05:27.405Z,0
2017-08-15T00:06:07.911Z,0
2017-08-15T00:06:48.456Z,0
2017-08-15T00:07:28.956Z,0
2017-08-15T00:08:09.494Z,0
2017-08-15T00:08:50.035Z,0
2017-08-15T00:09:30.563Z,0
2017-08-15T00:10:11.108Z,0
2017-08-15T00:10:51.638Z,0
2017-08-15T00:11:32.168Z,0
2017-08-15T00:12:12.677Z,0
2017-08-15T00:12:53.221Z,0
2017-08-15T00:13:33.703Z,0
2017-08-15T00:14:14.238Z,0
2017-08-15T00:14:54.773Z,0
2017-08-15T00:15:35.312Z,0
2017-08-15T00:16:15.860Z,0
2017-08-15T00:16:56.350Z,0
2017-08-15T00:17:36.891Z,0
2017-08-15T00:18:17.428Z,0
2017-08-15T00:18:57.964Z,0
2017-08-15T00:19:38.528Z,0
2017-08-15T00:20:19.064Z,0
2017-08-15T00:20:59.607Z,0
2017-08-15T00:21:40.150Z,0
2017-08-15T00:22:20.675Z,0
2017-08-15T00:23:01.211Z,0
2017-08-15T00:23:41.751Z,0
2017-08-15T00:24:22.280Z,0
2017-08-15T00:25:02.837Z,0
2017-08-15T00:25:43.380Z,0
2017-08-15T00:26:23.917Z,0
2017-08-15T00:27:04.455Z,0
2017-08-15T00:27:44.994Z,0
2017-08-15T00:28:25.536Z,0
2017-08-15T00:29:06.067Z,0
2017-08-15T00:29:46.606Z,0
2017-08-15T00:30:27.143Z,0
2017-08-15T00:31:07.686Z,0
2017-08-15T00:31:48.226Z,0
2017-08-15T00:32:28.757Z,0
2017-08-15T00:33:09.297Z,0
2017-08-15T00:33:49.835Z,0
2017-08-15T00:34:30.376Z,0
2017-08-15T00:35:10.913Z,0
2017-08-15T00:35:51.454Z,0
2017-08-15T00:36:31.987Z,0
2017-08-15T00:37:12.536Z,0
2017-08-15T00:37:53.064Z,0
2017-08-15T00:38:33.582Z,0
2017-08-15T00:39:14.121Z,0
2017-08-15T00:39:54.646Z,0
2017-08-15T00:40:35.163Z,0
2017-08-15T00:41:15.678Z,0
2017-08-15T00:41:56.192Z,0
2017-08-15T00:42:36.733Z,0
2017-08-15T00:43:17.277Z,0
2017-08-15T00:43:57.814Z,0
2017-08-15T00:44:38.344Z,0
2017-08-15T00:45:18.878Z,0
2017-08-15T00:45:59.425Z,0
2017-08-15T00:46:39.962Z,0
2017-08-15T00:47:20.491Z,0
2017-08-15T00:48:01.039Z,0
2017-08-15T00:48:41.580Z,0
2017-08-15T00:49:22.121Z,0
2017-08-15T00:50:02.646Z,0
2017-08-15T00:50:43.186Z,0
2017-08-15T00:51:23.725Z,0
2017-08-15T00:52:04.266Z,0
2017-08-15T00:52:44.822Z,0
2017-08-15T00:53:25.364Z,0
2017-08-15T00:54:05.901Z,0
2017-08-15T00:54:46.451Z,0
2017-08-15T00:55:26.994Z,0
2017-08-15T00:56:07.493Z,0
2017-08-15T00:56:48.001Z,0
2017-08-15T00:57:28.514Z,0
2017-08-15T00:58:09.027Z,0
2017-08-15T00:58:49.549Z,0
2017-08-15T00:59:30.111Z,0
2017-08-15T01:00:10.616Z,0
2017-08-15T01:00:51.129Z,0
2017-08-15T01:01:31.655Z,0
2017-08-15T01:02:12.174Z,0
2017-08-15T01:02:52.667Z,0
2017-08-15T01:03:33.175Z,0
2017-08-15T01:04:13.671Z,0
2017-08-15T01:04:54.183Z,0
2017-08-15T01:05:34.693Z,0
2017-08-15T01:06:15.235Z,0
2017-08-15T01:06:55.763Z,0
2017-08-15T01:07:36.290Z,0
2017-08-15T01:08:16.827Z,0
2017-08-15T01:08:57.368Z,0
2017-08-15T01:09:37.900Z,0
2017-08-15T01:10:18.437Z,0
2017-08-15T01:10:58.976Z,0
2017-08-15T01:11:39.505Z,0
2017-08-15T01:12:20.047Z,0
2017-08-15T01:13:00.579Z,0
2017-08-15T01:13:41.121Z,0
2017-08-15T01:14:21.663Z,0
2017-08-15T01:15:02.289Z,0
2017-08-15T01:15:42.731Z,0
2017-08-15T01:16:23.274Z,0
2017-08-15T01:17:03.844Z,0
2017-08-15T01:17:44.384Z,0
2017-08-15T01:18:24.925Z,0
2017-08-15T01:19:05.461Z,0
2017-08-15T01:19:46.003Z,0
2017-08-15T01:20:26.528Z,0
2017-08-15T01:21:07.055Z,0
2017-08-15T01:21:47.552Z,0
2017-08-15T01:22:28.065Z,0
2017-08-15T01:23:08.622Z,0
2017-08-15T01:23:49.157Z,0
2017-08-15T01:24:29.705Z,0
2017-08-15T01:25:10.216Z,0
2017-08-15T01:25:50.719Z,0
2017-08-15T01:26:31.261Z,0
2017-08-15T01:27:11.796Z,0
2017-08-15T01:27:52.318Z,0
2017-08-15T01:28:32.856Z,0
2017-08-15T01:29:13.371Z,0
2017-08-15T01:29:53.902Z,0
2017-08-15T01:30:34.438Z,0
2017-08-15T01:31:14.977Z,0
2017-08-15T01:31:55.492Z,0
2017-08-15T01:32:36.013Z,0
2017-08-15T01:33:16.515Z,0
2017-08-15T01:33:57.002Z,0
2017-08-15T01:34:37.532Z,0
2017-08-15T01:35:18.065Z,0
2017-08-15T01:35:58.566Z,0
2017-08-15T01:36:39.071Z,0
2017-08-15T01:37:19.612Z,0
2017-08-15T01:38:00.090Z,0
2017-08-15T01:38:40.601Z,0
2017-08-15T01:39:21.132Z,0
2017-08-15T01:40:01.672Z,0
2017-08-15T01:40:42.213Z,0
2017-08-15T01:41:22.752Z,0
2017-08-15T01:42:03.293Z,0
2017-08-15T01:42:43.823Z,0
2017-08-15T01:43:24.369Z,0
2017-08-15T01:44:04.912Z,0
2017-08-15T01:44:45.462Z,0
2017-08-15T01:45:26.022Z,0
2017-08-15T01:46:06.542Z,0
2017-08-15T01:46:47.081Z,0
2017-08-15T01:47:27.610Z,0
2017-08-15T01:48:08.151Z,0
2017-08-15T01:48:48.720Z,0
2017-08-15T01:49:29.225Z,0
2017-08-15T01:50:09.767Z,0
2017-08-15T01:50:50.284Z,0
2017-08-15T01:51:30.820Z,0
2017-08-15T01:52:11.316Z,0
2017-08-15T01:52:51.817Z,0
2017-08-15T01:53:32.326Z,0
2017-08-15T01:54:12.838Z,0
2017-08-15T01:54:53.372Z,0
2017-08-15T01:55:33.911Z,0
2017-08-15T01:56:14.418Z,0
2017-08-15T01:56:54.928Z,0
2017-08-15T01:57:35.509Z,0
2017-08-15T01:58:16.078Z,0
2017-08-15T01:58:56.616Z,0
2017-08-15T01:59:37.180Z,0
2017-08-15T02:00:17.679Z,0
2017-08-15T02:00:58.217Z,0
2017-08-15T02:01:38.742Z,0
2017-08-15T02:02:19.295Z,0
2017-08-15T02:02:59.865Z,0
2017-08-15T02:03:40.365Z,0
2017-08-15T02:04:20.880Z,0
2017-08-15T02:05:01.387Z,0
2017-08-15T02:05:41.924Z,0
2017-08-15T02:06:22.387Z,0
2017-08-15T02:07:02.930Z,0
2017-08-15T02:07:43.443Z,0
2017-08-15T02:08:23.923Z,0
2017-08-15T02:09:04.419Z,0
2017-08-15T02:09:44.935Z,0
2017-08-15T02:10:25.434Z,0
2017-08-15T02:11:05.969Z,0
2017-08-15T02:11:46.509Z,0
2017-08-15T02:12:27.046Z,0
2017-08-15T02:13:07.556Z,0
2017-08-15T02:13:48.073Z,0
2017-08-15T02:14:28.593Z,0
2017-08-15T02:15:09.123Z,0
2017-08-15T02:15:49.638Z,0
2017-08-15T02:16:30.147Z,0
2017-08-15T02:17:10.669Z,0
2017-08-15T02:17:51.169Z,0
2017-08-15T02:18:31.708Z,0
2017-08-15T02:19:12.250Z,0
2017-08-15T02:19:52.767Z,0
2017-08-15T02:20:33.272Z,0
2017-08-15T02:21:13.814Z,0
2017-08-15T02:21:54.343Z,0
2017-08-15T02:22:34.869Z,0
2017-08-15T02:23:15.395Z,0
2017-08-15T02:23:55.931Z,0
2017-08-15T02:24:36.473Z,0
2017-08-15T02:25:17.009Z,0
2017-08-15T02:25:57.544Z,0
2017-08-15T02:26:38.075Z,0
2017-08-15T02:27:18.602Z,0
2017-08-15T02:27:59.139Z,0
2017-08-15T02:28:39.679Z,0
2017-08-15T02:29:20.201Z,0
2017-08-15T02:30:00.745Z,0
2017-08-15T02:30:41.298Z,0
2017-08-15T02:31:21.827Z,0
2017-08-15T02:32:02.357Z,0
2017-08-15T02:32:42.894Z,0
2017-08-15T02:33:23.431Z,0
2017-08-15T02:34:03.948Z,0
2017-08-15T02:34:44.463Z,0
2017-08-15T02:35:24.978Z,0
2017-08-15T02:36:05.523Z,0
2017-08-15T02:36:45.989Z,0
2017-08-15T02:37:26.504Z,0
2017-08-15T02:38:06.993Z,0
2017-08-15T02:38:47.516Z,0
2017-08-15T02:39:28.052Z,0
2017-08-15T02:40:08.569Z,0
2017-08-15T02:40:49.086Z,0
2017-08-15T02:41:29.611Z,0
2017-08-15T02:42:10.128Z,0
2017-08-15T02:42:50.676Z,0
2017-08-15T02:43:31.232Z,0
2017-08-15T02:44:11.708Z,0
2017-08-15T02:44:52.234Z,0
2017-08-15T02:45:32.743Z,0
2017-08-15T02:46:13.264Z,0
2017-08-15T02:46:53.777Z,0
2017-08-15T02:47:34.316Z,0
2017-08-15T02:48:14.857Z,0
2017-08-15T02:48:55.395Z,0
2017-08-15T02:49:35.930Z,0
2017-08-15T02:50:16.469Z,0
2017-08-15T02:50:57.012Z,0
2017-08-15T02:51:37.536Z,0
2017-08-15T02:52:18.080Z,0
2017-08-15T02:52:58.604Z,0
2017-08-15T02:53:39.121Z,0
2017-08-15T02:54:19.663Z,0
2017-08-15T02:55:00.127Z,0
2017-08-15T02:55:40.656Z,0
2017-08-15T02:56:21.143Z,0
2017-08-15T02:57:01.660Z,0
2017-08-15T02:57:42.175Z,0
2017-08-15T02:58:22.678Z,0
2017-08-15T02:59:03.234Z,0
2017-08-15T02:59:43.730Z,0
2017-08-15T03:00:24.237Z,0
2017-08-15T03:01:04.782Z,0
2017-08-15T03:01:45.311Z,0
2017-08-15T03:02:25.854Z,0
2017-08-15T03:03:06.396Z,0
2017-08-15T03:03:46.934Z,0
2017-08-15T03:04:27.464Z,0
2017-08-15T03:05:07.967Z,0
2017-08-15T03:05:48.479Z,0
2017-08-15T03:06:28.995Z,0
2017-08-15T03:07:09.513Z,0
2017-08-15T03:07:50.028Z,0
2017-08-15T03:08:30.558Z,0
2017-08-15T03:09:11.090Z,0
2017-08-15T03:09:51.549Z,0
2017-08-15T03:10:32.093Z,0
2017-08-15T03:11:12.614Z,0
2017-08-15T03:11:53.153Z,0
2017-08-15T03:12:33.651Z,0
2017-08-15T03:13:14.169Z,0
2017-08-15T03:13:54.671Z,0
2017-08-15T03:14:35.171Z,0
2017-08-15T03:15:15.680Z,0
2017-08-15T03:15:56.166Z,0
2017-08-15T03:16:36.671Z,0
2017-08-15T03:17:17.254Z,0
2017-08-15T03:17:57.743Z,0
2017-08-15T03:18:38.322Z,0
2017-08-15T03:19:18.801Z,0
2017-08-15T03:19:59.302Z,0
2017-08-15T03:20:39.836Z,0
2017-08-15T03:21:20.365Z,0
2017-08-15T03:22:00.911Z,0
2017-08-15T03:22:41.452Z,0
2017-08-15T03:23:21.968Z,0
2017-08-15T03:24:02.504Z,0
2017-08-15T03:24:43.019Z,0
2017-08-15T03:25:23.547Z,0
2017-08-15T03:26:04.100Z,0
2017-08-15T03:26:44.629Z,0
2017-08-15T03:27:25.146Z,0
2017-08-15T03:28:05.665Z,0
2017-08-15T03:28:46.517Z,0
2017-08-15T03:29:27.323Z,0
2017-08-15T03:30:08.081Z,0
2017-08-15T03:30:48.709Z,0
2017-08-15T03:31:29.146Z,0
2017-08-15T03:32:09.725Z,0
2017-08-15T03:32:50.429Z,0
2017-08-15T03:33:30.905Z,0
2017-08-15T03:34:11.400Z,0
2017-08-15T03:34:51.947Z,0
2017-08-15T03:35:32.440Z,0
2017-08-15T03:36:13.016Z,0
2017-08-15T03:36:53.529Z,0
2017-08-15T03:37:34.088Z,0
2017-08-15T03:38:14.534Z,0
2017-08-15T03:38:55.123Z,0
2017-08-15T03:39:35.587Z,0
2017-08-15T03:40:16.153Z,0
2017-08-15T03:40:56.656Z,0
2017-08-15T03:41:37.224Z,0
2017-08-15T03:42:17.684Z,0
2017-08-15T03:42:58.231Z,0
2017-08-15T03:43:38.769Z,0
2017-08-15T03:44:19.279Z,0
2017-08-15T03:44:59.804Z,0
2017-08-15T03:45:40.431Z,0
2017-08-15T03:46:20.895Z,0
2017-08-15T03:47:01.378Z,0
2017-08-15T03:47:41.994Z,0
2017-08-15T03:48:22.493Z,0
2017-08-15T03:49:03.072Z,0
2017-08-15T03:49:43.598Z,0
2017-08-15T03:50:24.173Z,0
2017-08-15T03:51:04.767Z,0
2017-08-15T03:51:45.257Z,0
2017-08-15T03:52:25.759Z,0
2017-08-15T03:53:06.263Z,0
2017-08-15T03:53:46.898Z,0
2017-08-15T03:54:29.196Z,0
2017-08-15T03:55:09.773Z,0
2017-08-15T03:55:50.303Z,0
2017-08-15T03:56:30.868Z,0
2017-08-15T03:57:11.416Z,0
2017-08-15T03:57:51.910Z,0
2017-08-15T03:58:32.418Z,0
2017-08-15T03:59:12.947Z,0
2017-08-15T03:59:53.469Z,0
2017-08-15T04:00:34.020Z,0
2017-08-15T04:01:14.517Z,0
2017-08-15T04:01:55.067Z,0
2017-08-15T04:02:35.528Z,0
2017-08-15T04:03:16.068Z,0
2017-08-15T04:03:56.857Z,0
2017-08-15T04:04:37.345Z,0
2017-08-15T04:05:17.892Z,0
2017-08-15T04:05:58.441Z,0
2017-08-15T04:06:39.000Z,0
2017-08-15T04:07:19.568Z,0
2017-08-15T04:08:00.048Z,0
2017-08-15T04:08:40.563Z,0
2017-08-15T04:09:21.126Z,0
2017-08-15T04:10:01.599Z,0
2017-08-15T04:10:42.118Z,0
2017-08-15T04:11:22.661Z,0
2017-08-15T04:12:05.028Z,0
2017-08-15T04:12:45.556Z,0
2017-08-15T04:13:26.158Z,0
2017-08-15T04:14:06.622Z,0
2017-08-15T04:14:47.151Z,0
2017-08-15T04:15:27.688Z,0
2017-08-15T04:16:08.217Z,0
2017-08-15T04:16:48.754Z,0
2017-08-15T04:17:29.279Z,0
2017-08-15T04:18:09.917Z,0
2017-08-15T04:18:50.343Z,0
2017-08-15T04:19:31.141Z,5
2017-08-15T04:20:11.535Z,5
2017-08-15T04:20:52.862Z,5
2017-08-15T04:21:33.392Z,5
2017-08-15T04:22:13.932Z,5
2017-08-15T04:22:54.455Z,5
2017-08-15T04:23:35.025Z,5
2017-08-15T04:24:15.515Z,5
2017-08-15T04:24:56.041Z,5
2017-08-15T04:25:36.566Z,5
2017-08-15T04:26:17.127Z,5
2017-08-15T04:26:57.642Z,5
2017-08-15T04:27:38.197Z,5
2017-08-15T04:28:18.718Z,5
2017-08-15T04:28:59.258Z,5
2017-08-15T04:29:39.804Z,5
2017-08-15T04:30:20.341Z,5
2017-08-15T04:31:00.879Z,5
2017-08-15T04:31:41.422Z,5
2017-08-15T04:32:21.960Z,5
2017-08-15T04:33:02.511Z,5
2017-08-15T04:33:43.045Z,5
2017-08-15T04:34:23.581Z,10
2017-08-15T04:35:04.139Z,10
2017-08-15T04:35:44.663Z,10
2017-08-15T04:36:25.197Z,10
2017-08-15T04:37:05.678Z,10
2017-08-15T04:37:46.202Z,10
2017-08-15T04:38:26.708Z,10
2017-08-15T04:39:07.201Z,10
2017-08-15T04:39:47.726Z,10
2017-08-15T04:40:28.247Z,10
2017-08-15T04:41:08.746Z,10
2017-08-15T04:41:49.290Z,10
2017-08-15T04:42:29.838Z,10
2017-08-15T04:43:10.428Z,10
2017-08-15T04:43:50.943Z,10
2017-08-15T04:44:31.446Z,10
2017-08-15T04:45:11.946Z,15
2017-08-15T04:45:52.465Z,15
2017-08-15T04:46:32.950Z,15
2017-08-15T04:47:13.496Z,15
2017-08-15T04:47:54.006Z,15
2017-08-15T04:48:34.538Z,15
2017-08-15T04:49:15.080Z,15
2017-08-15T04:49:55.637Z,15
2017-08-15T04:50:36.166Z,15
2017-08-15T04:51:16.698Z,15
2017-08-15T04:51:57.219Z,15
2017-08-15T04:52:37.691Z,15
2017-08-15T04:53:18.231Z,15
2017-08-15T04:53:58.678Z,15
2017-08-15T04:54:39.178Z,20
2017-08-15T04:55:19.739Z,20
2017-08-15T04:56:00.264Z,20
2017-08-15T04:56:40.807Z,20
2017-08-15T04:57:21.352Z,20
2017-08-15T04:58:01.862Z,20
2017-08-15T04:58:42.414Z,20
2017-08-15T04:59:22.910Z,20
2017-08-15T05:00:03.470Z,20
2017-08-15T05:00:44.048Z,20
2017-08-15T05:01:24.521Z,25
2017-08-15T05:02:05.095Z,25
2017-08-15T05:02:45.503Z,25
2017-08-15T05:03:26.041Z,25
2017-08-15T05:04:06.578Z,25
2017-08-15T05:04:47.139Z,25
2017-08-15T05:05:27.617Z,30
2017-08-15T05:06:08.143Z,30
2017-08-15T05:06:48.673Z,30
2017-08-15T05:07:29.232Z,30
2017-08-15T05:08:09.762Z,30
2017-08-15T05:08:50.319Z,35
2017-08-15T05:09:30.823Z,35
2017-08-15T05:10:11.316Z,35
2017-08-15T05:10:51.805Z,35
2017-08-15T05:11:32.342Z,35
2017-08-15T05:12:12.881Z,35
2017-08-15T05:12:53.433Z,40
2017-08-15T05:13:33.990Z,40
2017-08-15T05:14:14.549Z,40
2017-08-15T05:14:55.092Z,40
2017-08-15T05:15:35.650Z,40
2017-08-15T05:16:16.171Z,45
2017-08-15T05:16:56.750Z,45
2017-08-15T05:17:37.301Z,45
2017-08-15T05:18:17.821Z,45
2017-08-15T05:18:58.360Z,45
2017-08-15T05:19:38.922Z,45
2017-08-15T05:20:19.424Z,50
2017-08-15T05:20:59.962Z,50
2017-08-15T05:21:40.495Z,50
2017-08-15T05:22:21.037Z,50
2017-08-15T05:23:01.716Z,50
2017-08-15T05:23:42.524Z,50
2017-08-15T05:24:23.086Z,50
2017-08-15T05:25:03.622Z,55
2017-08-15T05:25:44.168Z,55
2017-08-15T05:26:24.639Z,55
2017-08-15T05:27:05.108Z,55
2017-08-15T05:27:45.658Z,55
2017-08-15T05:28:26.123Z,55
2017-08-15T05:29:06.638Z,55
2017-08-15T05:29:47.186Z,55
2017-08-15T05:30:27.728Z,60
2017-08-15T05:31:08.282Z,60
2017-08-15T05:31:48.765Z,60
2017-08-15T05:32:29.286Z,60
2017-08-15T05:33:09.758Z,60
2017-08-15T05:33:50.252Z,60
2017-08-15T05:34:30.737Z,60
2017-08-15T05:35:11.281Z,60
2017-08-15T05:35:51.820Z,60
2017-08-15T05:36:32.379Z,65
2017-08-15T05:37:12.922Z,65
2017-08-15T05:37:53.482Z,65
2017-08-15T05:38:34.016Z,65
2017-08-15T05:39:14.541Z,65
2017-08-15T05:39:55.077Z,65
2017-08-15T05:40:35.639Z,65
2017-08-15T05:41:16.175Z,65
2017-08-15T05:41:56.715Z,65
2017-08-15T05:42:37.244Z,65
2017-08-15T05:43:17.788Z,70
2017-08-15T05:43:58.347Z,70
2017-08-15T05:44:38.874Z,70
2017-08-15T05:45:19.435Z,70
2017-08-15T05:45:59.971Z,70
2017-08-15T05:46:40.527Z,70
2017-08-15T05:47:21.052Z,70
2017-08-15T05:48:01.587Z,70
2017-08-15T05:48:42.130Z,70
2017-08-15T05:49:22.670Z,70
2017-08-15T05:50:03.200Z,75
2017-08-15T05:50:43.709Z,75
2017-08-15T05:51:24.205Z,75
2017-08-15T05:52:04.684Z,75
2017-08-15T05:52:45.191Z,75
2017-08-15T05:53:25.694Z,75
2017-08-15T05:54:06.190Z,75
2017-08-15T05:54:46.722Z,75
2017-08-15T05:55:27.245Z,75
2017-08-15T05:56:07.739Z,75
2017-08-15T05:56:48.240Z,80
2017-08-15T05:57:28.722Z,80
2017-08-15T05:58:09.199Z,80
2017-08-15T05:58:49.757Z,80
2017-08-15T05:59:30.297Z,80
2017-08-15T06:00:10.778Z,80
2017-08-15T06:00:51.291Z,80
2017-08-15T06:01:31.855Z,80
2017-08-15T06:02:12.343Z,85
2017-08-15T06:02:52.858Z,85
2017-08-15T06:03:33.345Z,85
2017-08-15T06:04:14.050Z,85
2017-08-15T06:04:54.588Z,85
2017-08-15T06:05:35.083Z,85
2017-08-15T06:06:15.603Z,85
2017-08-15T06:06:56.078Z,90
2017-08-15T06:07:36.598Z,90
2017-08-15T06:08:17.156Z,90
2017-08-15T06:08:57.714Z,90
2017-08-15T06:09:38.270Z,90
2017-08-15T06:10:18.814Z,90
2017-08-15T06:10:59.374Z,95
2017-08-15T06:11:39.908Z,95
2017-08-15T06:12:20.457Z,95
2017-08-15T06:13:00.954Z,95
2017-08-15T06:13:41.460Z,95
2017-08-15T06:14:21.954Z,100
2017-08-15T06:15:02.479Z,100
2017-08-15T06:15:42.997Z,100
2017-08-15T06:16:23.497Z,105
2017-08-15T06:17:04.004Z,105
2017-08-15T06:17:44.525Z,110
2017-08-15T06:18:24.985Z,110
2017-08-15T06:19:05.481Z,110
2017-08-15T06:19:45.997Z,115
2017-08-15T06:20:26.505Z,115
2017-08-15T06:21:06.970Z,120
2017-08-15T06:21:47.488Z,125
2017-08-15T06:22:28.027Z,125
2017-08-15T06:23:08.562Z,130
2017-08-15T06:23:49.064Z,140
2017-08-15T06:24:29.575Z,140
2017-08-15T06:25:10.129Z,145
2017-08-15T06:25:50.673Z,150
2017-08-15T06:26:31.209Z,150
2017-08-15T06:27:11.760Z,150
2017-08-15T06:27:52.378Z,155
2017-08-15T06:28:32.937Z,160
2017-08-15T06:29:13.521Z,160
2017-08-15T06:29:54.059Z,160
2017-08-15T06:30:34.580Z,160
2017-08-15T06:31:15.127Z,160
2017-08-15T06:31:55.705Z,160
2017-08-15T06:32:36.220Z,155
2017-08-15T06:33:16.759Z,155
2017-08-15T06:33:57.318Z,150
2017-08-15T06:34:37.843Z,150
2017-08-15T06:35:18.385Z,145
2017-08-15T06:35:58.925Z,145
2017-08-15T06:36:39.466Z,145
2017-08-15T06:37:20.019Z,150
2017-08-15T06:38:00.507Z,155
2017-08-15T06:38:42.496Z,155
2017-08-15T06:39:23.028Z,165
2017-08-15T06:40:03.505Z,170
2017-08-15T06:40:44.016Z,175
2017-08-15T06:41:24.505Z,185
2017-08-15T06:42:05.057Z,195
2017-08-15T06:42:45.593Z,205
2017-08-15T06:43:26.150Z,200
2017-08-15T06:44:06.656Z,205
2017-08-15T06:44:47.144Z,210
2017-08-15T06:45:27.637Z,215
2017-08-15T06:46:08.202Z,210
2017-08-15T06:46:48.756Z,205
2017-08-15T06:47:29.336Z,200
2017-08-15T06:48:09.823Z,195
2017-08-15T06:48:50.322Z,190
2017-08-15T06:49:30.852Z,190
2017-08-15T06:50:11.398Z,195
2017-08-15T06:50:51.914Z,195
2017-08-15T06:51:32.441Z,195
2017-08-15T06:52:12.967Z,195
2017-08-15T06:52:53.505Z,200
2017-08-15T06:53:34.051Z,205
2017-08-15T06:54:14.597Z,210
2017-08-15T06:54:55.161Z,210
2017-08-15T06:55:35.720Z,215
2017-08-15T06:56:17.340Z,225
2017-08-15T06:56:57.903Z,230
2017-08-15T06:57:38.986Z,235
2017-08-15T06:58:19.647Z,240
2017-08-15T06:59:00.220Z,245
2017-08-15T06:59:40.777Z,245
2017-08-15T07:00:22.080Z,255
2017-08-15T07:01:02.887Z,260
2017-08-15T07:01:43.429Z,270
2017-08-15T07:02:24.071Z,270
2017-08-15T07:03:04.746Z,275
2017-08-15T07:03:45.495Z,275
2017-08-15T07:04:26.474Z,280
2017-08-15T07:05:07.338Z,280
2017-08-15T07:05:47.955Z,285
2017-08-15T07:06:29.204Z,290
2017-08-15T07:07:09.770Z,290
2017-08-15T07:07:50.293Z,295
2017-08-15T07:08:30.914Z,300
2017-08-15T07:09:11.652Z,310
2017-08-15T07:09:52.296Z,310
2017-08-15T07:10:33.091Z,315
2017-08-15T07:11:13.660Z,320
2017-08-15T07:11:54.996Z,320
2017-08-15T07:12:36.440Z,315
2017-08-15T07:13:17.093Z,320
2017-08-15T07:13:57.859Z,325
2017-08-15T07:14:41.017Z,330
2017-08-15T07:15:22.018Z,330
2017-08-15T07:16:02.736Z,325
2017-08-15T07:16:43.279Z,330
2017-08-15T07:17:25.438Z,340
2017-08-15T07:18:05.487Z,345
2017-08-15T07:18:46.023Z,365
2017-08-15T07:19:26.564Z,380
2017-08-15T07:20:07.048Z,425
2017-08-15T07:20:47.652Z,455
2017-08-15T07:21:28.156Z,470
2017-08-15T07:22:08.795Z,460
2017-08-15T07:22:50.615Z,470
2017-08-15T07:23:31.290Z,455
2017-08-15T07:24:13.150Z,430
2017-08-15T07:24:55.289Z,395
2017-08-15T07:25:40.517Z,380
2017-08-15T07:26:24.869Z,370
2017-08-15T07:27:05.602Z,365
2017-08-15T07:27:46.982Z,355
2017-08-15T07:28:27.935Z,330
2017-08-15T07:29:08.381Z,335
2017-08-15T07:29:48.897Z,350
2017-08-15T07:30:29.434Z,375
2017-08-15T07:31:10.141Z,380
2017-08-15T07:31:50.794Z,380
2017-08-15T07:32:31.336Z,390
2017-08-15T07:33:11.875Z,400
2017-08-15T07:33:52.659Z,400
2017-08-15T07:34:33.109Z,410
2017-08-15T07:35:13.836Z,410
2017-08-15T07:35:54.454Z,405
2017-08-15T07:36:35.312Z,385
2017-08-15T07:37:15.820Z,375
2017-08-15T07:37:56.332Z,390
2017-08-15T07:38:36.869Z,405
2017-08-15T07:39:17.567Z,405
2017-08-15T07:39:58.229Z,415
2017-08-15T07:40:38.790Z,400
2017-08-15T07:41:19.421Z,405
2017-08-15T07:42:00.597Z,415
2017-08-15T07:42:41.132Z,445
2017-08-15T07:43:21.764Z,485
2017-08-15T07:44:02.304Z,505
2017-08-15T07:44:42.959Z,445
2017-08-15T07:45:23.589Z,305
2017-08-15T07:46:04.288Z,260
2017-08-15T07:46:44.985Z,235
2017-08-15T07:47:25.462Z,220
2017-08-15T07:48:06.110Z,200
2017-08-15T07:48:46.772Z,195
2017-08-15T07:49:27.370Z,190
2017-08-15T07:50:07.991Z,190
2017-08-15T07:50:48.530Z,190
2017-08-15T07:51:29.177Z,195
2017-08-15T07:52:09.714Z,200
2017-08-15T07:52:50.358Z,200
2017-08-15T07:53:30.893Z,210
2017-08-15T07:54:11.432Z,210
2017-08-15T07:54:51.970Z,215
2017-08-15T07:55:32.507Z,220
2017-08-15T07:56:13.128Z,215
2017-08-15T07:56:53.830Z,220
2017-08-15T07:57:34.566Z,220
2017-08-15T07:58:15.103Z,215
2017-08-15T07:58:55.794Z,205
2017-08-15T07:59:36.543Z,185
2017-08-15T08:00:17.076Z,170
2017-08-15T08:00:57.650Z,160
2017-08-15T08:01:38.187Z,160
2017-08-15T08:02:18.732Z,155
2017-08-15T08:02:59.248Z,150
2017-08-15T08:03:39.790Z,145
2017-08-15T08:04:20.354Z,140
2017-08-15T08:05:01.056Z,135
2017-08-15T08:05:41.586Z,130
2017-08-15T08:06:22.115Z,125
2017-08-15T08:07:02.674Z,120
2017-08-15T08:07:43.481Z,120
2017-08-15T08:08:23.972Z,120
2017-08-15T08:09:04.556Z,120
2017-08-15T08:09:45.052Z,125
2017-08-15T08:10:25.582Z,120
2017-08-15T08:11:06.148Z,115
2017-08-15T08:11:46.624Z,115
2017-08-15T08:12:27.108Z,110
2017-08-15T08:13:07.626Z,110
2017-08-15T08:13:48.175Z,110
2017-08-15T08:14:28.703Z,105
2017-08-15T08:15:09.229Z,105
2017-08-15T08:15:49.798Z,100
2017-08-15T08:16:30.320Z,100
2017-08-15T08:17:10.858Z,100
2017-08-15T08:17:51.399Z,100
2017-08-15T08:18:31.930Z,95
2017-08-15T08:19:12.472Z,90
2017-08-15T08:19:53.178Z,85
2017-08-15T08:20:33.967Z,85
2017-08-15T08:21:15.469Z,80
2017-08-15T08:21:56.497Z,75
2017-08-15T08:22:37.056Z,75
2017-08-15T08:23:20.537Z,75
2017-08-15T08:24:01.322Z,70
2017-08-15T08:24:42.586Z,70
2017-08-15T08:25:23.154Z,70
2017-08-15T08:26:03.680Z,65
2017-08-15T08:26:44.259Z,65
2017-08-15T08:27:24.866Z,65
2017-08-15T08:28:05.469Z,65
2017-08-15T08:28:46.101Z,65
2017-08-15T08:29:26.591Z,70
2017-08-15T08:30:07.134Z,70
2017-08-15T08:30:47.765Z,70
2017-08-15T08:31:28.504Z,70
2017-08-15T08:32:09.200Z,70
2017-08-15T08:32:49.933Z,75
2017-08-15T08:33:31.084Z,75
2017-08-15T08:34:11.788Z,70
2017-08-15T08:34:52.896Z,70
2017-08-15T08:35:33.880Z,65
2017-08-15T08:36:14.271Z,65
2017-08-15T08:36:55.454Z,65
2017-08-15T08:37:40.598Z,65
2017-08-15T08:38:22.890Z,65
2017-08-15T08:39:07.321Z,65
2017-08-15T08:39:49.311Z,65
2017-08-15T08:40:30.056Z,65
2017-08-15T08:41:10.961Z,65
2017-08-15T08:41:51.505Z,65
2017-08-15T08:42:32.194Z,60
2017-08-15T08:43:12.857Z,55
2017-08-15T08:43:53.650Z,55
2017-08-15T08:44:34.420Z,50
2017-08-15T08:45:15.124Z,50
2017-08-15T08:45:55.699Z,50
2017-08-15T08:46:36.338Z,50
2017-08-15T08:47:16.954Z,50
2017-08-15T08:47:57.694Z,45
2017-08-15T08:48:38.501Z,45
2017-08-15T08:49:19.205Z,45
2017-08-15T08:49:59.907Z,45
2017-08-15T08:50:40.789Z,40
2017-08-15T08:51:21.413Z,40
2017-08-15T08:52:02.049Z,40
2017-08-15T08:52:42.832Z,40
2017-08-15T08:53:23.616Z,40
2017-08-15T08:54:04.715Z,40
2017-08-15T08:56:18.711Z,40
2017-08-15T08:56:59.155Z,40
2017-08-15T08:57:39.635Z,40
2017-08-15T08:58:20.280Z,40
2017-08-15T08:59:00.748Z,40
2017-08-15T08:59:41.348Z,45
2017-08-15T09:00:22.855Z,45
2017-08-15T09:01:03.636Z,45
2017-08-15T09:01:44.306Z,45
2017-08-15T09:02:25.413Z,45
2017-08-15T09:03:06.099Z,45
2017-08-15T09:03:46.916Z,45
2017-08-15T09:04:27.608Z,45
2017-08-15T09:05:08.295Z,50
2017-08-15T09:05:49.102Z,50
2017-08-15T09:06:29.753Z,50
2017-08-15T09:07:10.446Z,55
2017-08-15T09:07:50.997Z,55
2017-08-15T09:08:31.707Z,60
2017-08-15T09:09:12.380Z,65
2017-08-15T09:09:54.421Z,65
2017-08-15T09:10:34.699Z,70
2017-08-15T09:11:17.211Z,70
2017-08-15T09:11:57.783Z,75
2017-08-15T09:12:38.790Z,80
2017-08-15T09:13:20.376Z,85
2017-08-15T09:14:02.709Z,90
2017-08-15T09:14:43.216Z,95
2017-08-15T09:15:23.818Z,100
2017-08-15T09:16:04.602Z,105
2017-08-15T09:16:46.000Z,110
2017-08-15T09:17:26.531Z,115
2017-08-15T09:18:07.264Z,125
2017-08-15T09:18:47.796Z,135
2017-08-15T09:19:28.394Z,145
2017-08-15T09:20:09.057Z,160
2017-08-15T09:20:49.758Z,170
2017-08-15T09:21:30.302Z,185
2017-08-15T09:22:10.875Z,185
2017-08-15T09:22:51.347Z,190
2017-08-15T09:23:31.896Z,190
2017-08-15T09:24:12.515Z,185
2017-08-15T09:24:53.096Z,175
2017-08-15T09:25:33.872Z,165
2017-08-15T09:26:14.385Z,160
2017-08-15T09:26:54.865Z,140
2017-08-15T09:27:35.385Z,130
2017-08-15T09:28:20.243Z,120
2017-08-15T09:29:00.778Z,110
2017-08-15T09:29:41.455Z,105
2017-08-15T09:30:22.016Z,100
2017-08-15T09:31:03.747Z,90
2017-08-15T09:31:44.500Z,85
2017-08-15T09:32:28.320Z,80
2017-08-15T09:33:09.059Z,75
2017-08-15T09:33:51.662Z,70
2017-08-15T09:34:32.185Z,65
2017-08-15T09:35:12.696Z,60
2017-08-15T09:35:53.242Z,55
2017-08-15T09:36:33.763Z,50
2017-08-15T09:37:14.271Z,45
2017-08-15T09:37:54.781Z,45
2017-08-15T09:38:35.747Z,40
2017-08-15T09:39:16.221Z,40
2017-08-15T09:39:57.118Z,35
2017-08-15T09:40:37.742Z,35
2017-08-15T09:41:18.199Z,35
2017-08-15T09:41:59.043Z,30
2017-08-15T09:42:39.509Z,30
2017-08-15T09:43:21.832Z,30
2017-08-15T09:44:02.851Z,25
2017-08-15T09:44:44.069Z,25
2017-08-15T09:45:24.659Z,25